Time;durP1;ratioP1;P1;durP2;ratioP2;P2;SDS_P1;SDS_P2;PMS_P1;PMS_P2;Temp;Humidity;BMP_temperature;BMP_pressure;BME280_temperature;BME280_humidity;BME280_pressure;Samples;Min_cycle;Max_cycle;Signal;HPM_P1;HPM_P2
2022/12/11 00:01:14;;;;;;;32.53;14.13;;;-3.20;99.90;;;;;;6188305;23;20013;-76
2022/12/11 00:03:46;;;;;;;33.17;12.93;;;-3.20;99.90;;;;;;6161075;23;20013;-76
2022/12/11 00:06:19;;;;;;;30.65;12.90;;;-3.70;99.90;;;;;;6199229;23;20017;-77
2022/12/11 00:08:49;;;;;;;31.33;13.98;;;-3.90;99.90;;;;;;6188956;23;20013;-78
2022/12/11 00:11:17;;;;;;;30.17;13.18;;;-1.40;99.90;;;;;;6161474;23;20073;-79
2022/12/11 00:13:44;;;;;;;35.47;14.18;;;-3.30;99.90;;;;;;6162849;23;20024;-76
2022/12/11 00:16:12;;;;;;;32.55;13.45;;;-3.40;99.90;;;;;;6196667;23;20009;-77
2022/12/11 00:18:40;;;;;;;35.47;13.50;;;-3.40;99.90;;;;;;6138855;23;20027;-76
2022/12/11 00:21:13;;;;;;;34.88;13.85;;;-3.30;99.90;;;;;;6187406;23;20017;-78
2022/12/11 00:23:41;;;;;;;30.80;13.73;;;-3.40;99.90;;;;;;6171147;23;20016;-76
2022/12/11 00:26:14;;;;;;;33.70;13.40;;;-3.40;99.90;;;;;;6162625;23;20020;-79
2022/12/11 00:28:43;;;;;;;29.77;12.85;;;-3.40;99.90;;;;;;6137807;23;20017;-78
2022/12/11 00:31:15;;;;;;;31.15;13.02;;;-3.40;99.90;;;;;;6187089;23;20013;-78
2022/12/11 00:33:44;;;;;;;33.55;13.23;;;-3.40;99.90;;;;;;6198556;23;20016;-76
2022/12/11 00:36:13;;;;;;;33.28;13.68;;;-3.60;99.90;;;;;;6172567;23;20013;-78
2022/12/11 00:38:41;;;;;;;31.85;14.05;;;-1.70;99.90;;;;;;6188239;23;20013;-76
2022/12/11 00:41:12;;;;;;;32.80;13.90;;;-3.50;99.90;;;;;;6162095;23;20021;-77
2022/12/11 00:43:42;;;;;;;36.83;14.13;;;-2.40;99.90;;;;;;6197468;23;20016;-76
2022/12/11 00:46:09;;;;;;;;;;;-3.80;99.90;;;;;;6198830;23;20025;-76
2022/12/11 00:48:38;;;;;;;27.85;12.02;;;-3.50;99.90;;;;;;6162115;23;19916;-75
2022/12/11 00:51:06;;;;;;;27.15;12.77;;;;;;;;;;6161080;23;20016;-76
2022/12/11 00:53:33;;;;;;;;;;;-3.60;99.90;;;;;;6162997;23;20024;-76
2022/12/11 00:56:00;;;;;;;29.92;12.30;;;-3.60;99.90;;;;;;6138404;23;19915;-75
2022/12/11 00:58:28;;;;;;;37.30;13.32;;;-3.90;99.90;;;;;;6186554;23;20017;-76
2022/12/11 01:01:04;;;;;;;28.42;12.27;;;-3.70;99.90;;;;;;6188231;23;20017;-78
2022/12/11 01:03:32;;;;;;;32.50;12.25;;;-3.60;99.90;;;;;;6196710;23;20016;-77
2022/12/11 01:06:00;;;;;;;28.58;12.07;;;-3.70;99.90;;;;;;6162139;23;20032;-76
2022/12/11 01:08:27;;;;;;;29.20;11.90;;;-3.70;99.90;;;;;;6188035;23;20020;-79
2022/12/11 01:11:05;;;;;;;28.83;12.13;;;-3.60;99.90;;;;;;6170711;23;20021;-79
2022/12/11 01:13:33;;;;;;;26.90;11.23;;;-3.70;99.90;;;;;;6171993;23;20013;-77
2022/12/11 01:16:04;;;;;;;;;;;-3.80;99.90;;;;;;6113756;23;20028;-79
2022/12/11 01:18:32;;;;;;;24.65;9.82;;;-1.30;99.90;;;;;;6160424;23;19927;-77
2022/12/11 01:21:05;;;;;;;26.83;10.63;;;-3.70;99.90;;;;;;6187838;23;20188;-79
2022/12/11 01:23:32;;;;;;;24.98;10.88;;;-3.80;99.90;;;;;;6136456;23;20028;-78
2022/12/11 01:26:11;;;;;;;26.77;10.63;;;-4.00;99.90;;;;;;6197881;23;20028;-76
2022/12/11 01:28:39;;;;;;;28.95;10.98;;;-3.80;99.90;;;;;;6172027;23;20024;-76
2022/12/11 01:31:13;;;;;;;28.40;11.30;;;-3.80;99.90;;;;;;6160546;23;20024;-76
2022/12/11 01:33:41;;;;;;;24.77;11.02;;;-4.00;99.90;;;;;;6197561;23;20426;-79
2022/12/11 01:36:15;;;;;;;26.25;11.20;;;-3.90;99.90;;;;;;6136961;23;20028;-76
2022/12/11 01:38:44;;;;;;;28.00;12.02;;;-3.90;99.90;;;;;;6137396;23;20327;-76
2022/12/11 01:41:12;;;;;;;34.03;14.27;;;-3.90;99.90;;;;;;6161577;23;20017;-78
2022/12/11 01:44:06;;;;;;;35.70;13.50;;;-3.80;99.90;;;;;;6160681;23;20326;-77
2022/12/11 01:46:35;;;;;;;45.42;16.42;;;-3.90;99.90;;;;;;6187036;23;20438;-77
2022/12/11 01:49:07;;;;;;;41.95;16.80;;;-3.90;99.90;;;;;;6137196;23;20021;-76
2022/12/11 01:51:46;;;;;;;40.88;16.20;;;-1.80;99.90;;;;;;6196663;23;20017;-77
2022/12/11 01:54:18;;;;;;;40.83;14.90;;;-3.90;99.90;;;;;;6197476;23;20314;-78
2022/12/11 01:56:47;;;;;;;37.22;14.77;;;-3.90;99.90;;;;;;6196649;23;20310;-76
2022/12/11 01:59:19;;;;;;;39.97;14.90;;;-4.00;99.90;;;;;;6187444;23;20013;-79
2022/12/11 02:02:07;;;;;;;36.83;14.60;;;-4.00;99.90;;;;;;6161502;23;20426;-78
2022/12/11 02:04:38;;;;;;;42.70;15.38;;;-4.00;99.90;;;;;;6160132;23;20017;-78
2022/12/11 02:07:06;;;;;;;36.45;13.15;;;-4.00;99.90;;;;;;6172312;23;20020;-78
2022/12/11 02:09:35;;;;;;;36.88;14.23;;;-4.10;99.90;;;;;;6186380;23;20020;-77
2022/12/11 02:12:15;;;;;;;32.30;12.85;;;-4.20;99.90;;;;;;6136934;23;20017;-78
2022/12/11 02:15:13;;;;;;;28.58;11.50;;;-3.90;99.90;;;;;;6136912;23;20021;-78
2022/12/11 02:17:47;;;;;;;27.55;11.27;;;-5.10;99.90;;;;;;6170935;23;20020;-78
2022/12/11 02:20:22;;;;;;;23.63;10.55;;;-2.80;99.90;;;;;;6196599;23;20021;-80
2022/12/11 02:23:10;;;;;;;25.52;10.63;;;-1.70;99.90;;;;;;6161795;23;20300;-79
2022/12/11 02:26:05;;;;;;;25.95;10.75;;;-4.00;99.90;;;;;;6198166;23;20013;-76
2022/12/11 02:28:52;;;;;;;26.08;10.82;;;-4.00;99.90;;;;;;6137415;23;20013;-78
2022/12/11 02:31:26;;;;;;;28.42;11.32;;;-2.00;99.90;;;;;;6170135;23;20017;-77
2022/12/11 02:34:25;;;;;;;23.77;10.27;;;-4.00;99.90;;;;;;6172005;23;20013;-77
2022/12/11 02:36:59;;;;;;;25.33;11.07;;;-4.00;99.90;;;;;;6111892;23;20021;-76
2022/12/11 02:39:28;;;;;;;31.80;11.15;;;-4.20;99.90;;;;;;6147110;23;20023;-76
2022/12/11 02:41:57;;;;;;;24.23;10.80;;;-4.10;99.90;;;;;;6187186;23;20024;-79
2022/12/11 02:44:28;;;;;;;29.35;11.70;;;-4.00;99.90;;;;;;6186051;23;20028;-78
2022/12/11 02:46:58;;;;;;;25.45;10.63;;;-4.20;99.90;;;;;;6161392;23;20017;-79
2022/12/11 02:49:27;;;;;;;28.52;11.30;;;-4.00;99.90;;;;;;6161618;23;20013;-76
2022/12/11 02:51:57;;;;;;;28.52;11.38;;;-4.20;99.90;;;;;;6185827;23;20017;-77
2022/12/11 02:54:30;;;;;;;23.77;10.27;;;-1.50;99.90;;;;;;6187387;23;20017;-78
2022/12/11 02:57:04;;;;;;;25.48;11.07;;;-4.00;99.90;;;;;;6196348;23;20013;-76
2022/12/11 02:59:35;;;;;;;26.83;11.18;;;-4.10;99.90;;;;;;6197481;23;20028;-77
2022/12/11 03:02:04;;;;;;;29.52;10.90;;;-4.00;99.90;;;;;;6171788;23;20013;-78
2022/12/11 03:04:33;;;;;;;27.63;11.25;;;-4.00;99.90;;;;;;6185822;23;20017;-76
2022/12/11 03:07:12;;;;;;;29.90;11.88;;;-4.10;99.90;;;;;;6136595;23;20288;-75
2022/12/11 03:09:43;;;;;;;26.40;11.10;;;-4.10;99.90;;;;;;6146395;23;20020;-77
2022/12/11 03:12:16;;;;;;;28.80;11.25;;;-2.50;99.90;;;;;;6187222;23;20021;-77
2022/12/11 03:14:44;;;;;;;23.85;10.07;;;-4.10;99.90;;;;;;6171468;23;20311;-78
2022/12/11 03:17:16;;;;;;;22.60;9.95;;;-4.10;99.90;;;;;;6169996;23;20024;-77
2022/12/11 03:19:47;;;;;;;25.13;9.43;;;-4.10;99.90;;;;;;6172204;23;20017;-75
2022/12/11 03:22:20;;;;;;;27.67;10.50;;;-4.10;99.90;;;;;;6161934;23;20021;-76
2022/12/11 03:24:53;;;;;;;26.20;10.30;;;-4.10;99.90;;;;;;6197756;23;20017;-77
2022/12/11 03:27:36;;;;;;;23.13;9.63;;;-4.10;99.90;;;;;;6199052;23;20013;-78
2022/12/11 03:30:18;;;;;;;23.92;10.45;;;-4.10;99.90;;;;;;6171486;23;20315;-75
2022/12/11 03:32:54;;;;;;;22.88;9.10;;;-4.10;99.90;;;;;;6139051;23;20017;-78
2022/12/11 03:35:28;;;;;;;25.25;10.18;;;-4.10;99.90;;;;;;6163241;23;20017;-78
2022/12/11 03:38:00;;;;;;;27.75;10.95;;;-4.20;99.90;;;;;;6171531;23;20017;-78
2022/12/11 03:40:32;;;;;;;27.67;10.05;;;-2.10;99.90;;;;;;6138410;23;20331;-78
2022/12/11 03:42:59;;;;;;;26.52;9.70;;;-4.30;99.90;;;;;;6137769;23;20017;-75
2022/12/11 03:45:29;;;;;;;27.80;10.55;;;-4.50;99.90;;;;;;6188886;23;20445;-76
2022/12/11 03:47:58;;;;;;;25.65;10.75;;;-1.50;99.90;;;;;;6198472;23;20013;-77
2022/12/11 03:50:29;;;;;;;28.30;11.10;;;-4.30;99.90;;;;;;6161760;23;20013;-77
2022/12/11 03:52:59;;;;;;;26.65;10.77;;;-4.20;99.90;;;;;;6197551;23;20325;-78
2022/12/11 03:55:28;;;;;;;27.05;10.27;;;-4.30;99.90;;;;;;6188929;23;20020;-76
2022/12/11 03:57:56;;;;;;;25.40;10.45;;;-4.30;99.90;;;;;;6197456;23;20020;-79
2022/12/11 04:00:23;;;;;;;30.05;10.25;;;-4.30;99.90;;;;;;6138170;23;20314;-75
2022/12/11 04:05:45;;;;;;;20.60;9.20;;;-4.70;99.90;;;;;;6163222;23;20021;-76
2022/12/11 04:08:14;;;;;;;23.05;10.30;;;-4.40;99.90;;;;;;6162897;23;20318;-78
2022/12/11 04:10:42;;;;;;;28.48;9.75;;;-4.40;99.90;;;;;;6187117;23;20013;-77
2022/12/11 04:13:10;;;;;;;27.30;10.75;;;-4.40;99.90;;;;;;6138353;23;20009;-78
2022/12/11 04:15:38;;;;;;;34.20;11.20;;;-4.30;99.90;;;;;;6162486;23;20014;-75
2022/12/11 04:26:26;;;;;;;28.35;10.60;;;-4.20;99.90;;;;;;6162561;23;20016;-78
2022/12/11 04:28:54;;;;;;;29.63;11.68;;;-4.20;99.90;;;;;;6138081;23;20020;-78
2022/12/11 04:31:22;;;;;;;30.13;11.20;;;-3.00;99.90;;;;;;6161339;23;20013;-76
2022/12/11 04:33:50;;;;;;;29.52;11.40;;;-4.60;99.90;;;;;;6137766;23;20025;-76
2022/12/11 04:36:17;;;;;;;27.92;10.73;;;-4.30;99.90;;;;;;6161093;23;20318;-79
2022/12/11 04:38:45;;;;;;;28.27;11.65;;;-4.50;99.90;;;;;;6188286;23;20032;-79
2022/12/11 04:41:14;;;;;;;38.05;12.07;;;-4.60;99.90;;;;;;6163003;23;20013;-77
2022/12/11 04:43:45;;;;;;;29.63;11.50;;;-4.50;99.90;;;;;;6186900;23;20021;-78
2022/12/11 04:46:19;;;;;;;30.50;11.50;;;-4.40;99.90;;;;;;6172145;23;20013;-78
2022/12/11 04:48:47;;;;;;;30.13;10.73;;;-4.30;99.90;;;;;;6162419;23;20017;-77
2022/12/11 04:51:23;;;;;;;28.40;10.88;;;-4.30;99.90;;;;;;6136559;23;20024;-77
2022/12/11 04:53:51;;;;;;;27.45;11.65;;;-4.30;99.90;;;;;;6162520;23;20016;-77
2022/12/11 04:56:19;;;;;;;31.15;11.55;;;-4.30;99.90;;;;;;6196982;23;20013;-78
2022/12/11 04:58:47;;;;;;;29.92;11.68;;;-4.30;99.90;;;;;;6161950;23;20477;-77
2022/12/11 05:01:20;;;;;;;25.38;10.70;;;-4.30;99.90;;;;;;6137411;23;20024;-76
2022/12/11 05:03:49;;;;;;;32.08;12.05;;;-2.00;99.90;;;;;;6196753;23;20307;-75
2022/12/11 05:06:16;;;;;;;29.52;12.10;;;-3.90;99.90;;;;;;6172649;23;20020;-77
2022/12/11 05:08:44;;;;;;;43.20;12.80;;;-4.40;99.90;;;;;;6188118;23;20016;-78
2022/12/11 05:11:14;;;;;;;33.17;12.32;;;-4.30;99.90;;;;;;6160869;23;20021;-75
2022/12/11 05:13:42;;;;;;;34.15;12.63;;;-3.00;99.90;;;;;;6161882;23;20319;-76
2022/12/11 05:16:13;;;;;;;32.88;12.35;;;-4.30;99.90;;;;;;6198177;23;20009;-76
2022/12/11 05:18:40;;;;;;;28.45;11.35;;;-4.30;99.90;;;;;;6138339;23;20017;-77
2022/12/11 05:21:11;;;;;;;29.90;10.88;;;-4.60;99.90;;;;;;6161755;23;20028;-77
2022/12/11 05:23:39;;;;;;;29.38;11.18;;;-4.30;99.90;;;;;;6161229;23;20014;-76
2022/12/11 05:26:12;;;;;;;28.55;10.20;;;-4.30;99.90;;;;;;6162115;23;20453;-75
2022/12/11 05:28:40;;;;;;;27.13;10.32;;;-4.40;99.90;;;;;;6171809;23;20315;-78
2022/12/11 05:31:14;;;;;;;27.35;10.68;;;-2.80;99.90;;;;;;6136225;23;20013;-75
2022/12/11 05:33:43;;;;;;;27.02;10.27;;;-4.40;99.90;;;;;;6162373;23;20013;-77
2022/12/11 05:36:22;;;;;;;27.77;10.77;;;-4.40;99.90;;;;;;6172566;23;20009;-78
2022/12/11 05:38:51;;;;;;;27.45;10.23;;;-4.40;99.90;;;;;;6196719;23;20314;-76
2022/12/11 05:41:21;;;;;;;31.17;10.65;;;-4.40;99.90;;;;;;6186564;23;20016;-77
2022/12/11 05:43:50;;;;;;;30.15;10.13;;;-4.40;99.90;;;;;;6160811;23;20013;-76
2022/12/11 05:46:20;;;;;;;30.92;10.80;;;-4.50;99.90;;;;;;6137462;23;20036;-79
2022/12/11 05:48:50;;;;;;;22.80;9.85;;;-3.50;99.90;;;;;;6162238;23;20063;-76
2022/12/11 05:51:18;;;;;;;27.45;10.38;;;-4.50;99.90;;;;;;6160472;23;20013;-78
2022/12/11 05:53:47;;;;;;;;;;;-3.60;99.90;;;;;;6162242;23;20039;-78
2022/12/11 05:56:23;;;;;;;27.75;9.65;;;-4.50;99.90;;;;;;6196872;23;19916;-77
2022/12/11 05:58:51;;;;;;;27.83;9.82;;;-4.70;99.90;;;;;;6171901;23;20022;-79
2022/12/11 06:05:03;;;;;;;23.70;9.77;;;-3.00;99.90;;;;;;6130882;23;20308;-76
2022/12/11 06:07:36;;;;;;;26.17;10.48;;;-4.30;99.90;;;;;;6197425;23;20311;-77
2022/12/11 06:10:17;;;;;;;23.95;10.23;;;-4.50;99.90;;;;;;6172138;23;20438;-77
2022/12/11 06:13:03;;;;;;;28.30;10.57;;;-2.50;99.90;;;;;;6137260;23;20013;-77
2022/12/11 06:15:32;;;;;;;27.52;10.73;;;-2.90;99.90;;;;;;6137428;23;20028;-78
2022/12/11 06:18:02;;;;;;;26.13;10.82;;;-3.30;99.90;;;;;;6196300;23;20017;-77
2022/12/11 06:20:50;;;;;;;31.65;11.25;;;-4.40;99.90;;;;;;6175503;23;20025;-77
2022/12/11 06:23:24;;;;;;;29.50;11.00;;;-2.00;99.90;;;;;;6160780;23;20021;-76
2022/12/11 06:25:52;;;;;;;30.70;10.73;;;-4.90;99.90;;;;;;6171998;23;20020;-75
2022/12/11 06:28:19;;;;;;;32.28;12.00;;;-2.80;99.90;;;;;;6187293;23;20036;-77
2022/12/11 06:30:47;;;;;;;34.65;12.60;;;-4.40;99.90;;;;;;6135873;23;20013;-76
2022/12/11 06:33:14;;;;;;;33.47;12.63;;;-4.30;99.90;;;;;;6136772;23;20018;-76
2022/12/11 06:35:43;;;;;;;31.77;12.50;;;;;;;;;;6136924;23;20017;-76
2022/12/11 06:38:10;;;;;;;;;;;-4.10;99.90;;;;;;6135771;23;20016;-78
2022/12/11 06:40:37;;;;;;;67.22;16.45;;;-4.00;99.90;;;;;;6187671;23;20301;-75
2022/12/11 06:43:05;;;;;;;61.88;18.33;;;-4.70;99.90;;;;;;6160630;23;20014;-76
2022/12/11 06:45:36;;;;;;;92.68;21.00;;;-2.20;99.90;;;;;;6162130;23;20323;-78
2022/12/11 06:48:04;;;;;;;104.18;20.85;;;-1.40;99.90;;;;;;6162009;23;20017;-78
2022/12/11 06:50:32;;;;;;;;;;;-3.70;99.90;;;;;;6186510;23;20020;-76
2022/12/11 06:53:00;;;;;;;102.55;20.70;;;-1.60;99.90;;;;;;6187554;23;19916;-75
2022/12/11 06:55:27;;;;;;;97.78;21.60;;;-1.60;99.90;;;;;;6136734;23;20013;-78
2022/12/11 06:57:55;;;;;;;113.68;19.20;;;-3.60;99.90;;;;;;6136769;23;20465;-78
2022/12/11 07:00:23;;;;;;;66.97;17.85;;;-1.40;99.90;;;;;;6188411;23;20314;-78
2022/12/11 07:02:50;;;;;;;70.00;18.50;;;-3.40;99.90;;;;;;6188019;23;20024;-78
2022/12/11 07:05:18;;;;;;;119.05;18.50;;;-3.80;99.90;;;;;;6187505;23;20017;-76
2022/12/11 07:07:46;;;;;;;;;;;-2.40;99.90;;;;;;6173864;23;20016;-76
2022/12/11 07:10:13;;;;;;;234.50;21.15;;;-3.20;99.90;;;;;;6137612;23;19931;-76
2022/12/11 07:12:41;;;;;;;202.63;20.88;;;-1.50;99.90;;;;;;6163084;23;20292;-78
2022/12/11 07:15:09;;;;;;;198.93;23.08;;;-0.70;99.90;;;;;;6189185;23;20024;-78
2022/12/11 07:17:37;;;;;;;140.45;20.42;;;-3.40;99.90;;;;;;6113718;23;20017;-75
2022/12/11 07:20:05;;;;;;;139.23;21.88;;;-3.80;99.90;;;;;;6163433;23;20013;-77
2022/12/11 07:22:33;;;;;;;81.05;20.73;;;-3.40;99.90;;;;;;6138378;23;20017;-79
2022/12/11 07:25:00;;;;;;;83.30;20.17;;;-2.00;99.90;;;;;;6162355;23;20013;-76
2022/12/11 07:27:29;;;;;;;73.07;19.88;;;-1.20;99.90;;;;;;6196751;23;20016;-76
2022/12/11 07:29:57;;;;;;;154.00;24.15;;;-1.40;99.90;;;;;;6134861;23;20448;-78
2022/12/11 07:32:24;;;;;;;103.97;20.55;;;-1.90;99.90;;;;;;6161282;23;20318;-76
2022/12/11 07:34:52;;;;;;;102.57;21.02;;;-3.90;99.90;;;;;;6186642;23;20291;-76
2022/12/11 07:37:20;;;;;;;101.70;21.45;;;-3.80;99.90;;;;;;6196039;23;20016;-77
2022/12/11 07:39:47;;;;;;;65.28;20.38;;;-3.90;99.90;;;;;;6137518;23;20020;-77
2022/12/11 07:42:15;;;;;;;104.90;20.13;;;-1.70;99.90;;;;;;6162079;23;20017;-75
2022/12/11 07:44:43;;;;;;;;;;;-3.80;99.90;;;;;;6187984;23;20016;-76
2022/12/11 07:47:11;;;;;;;117.88;20.08;;;-3.80;99.90;;;;;;6172849;23;20302;-77
2022/12/11 07:49:38;;;;;;;98.80;20.42;;;-4.20;99.90;;;;;;6136814;23;20334;-79
2022/12/11 07:52:06;;;;;;;77.13;21.60;;;-2.60;99.90;;;;;;6188807;23;20020;-77
2022/12/11 07:54:34;;;;;;;88.55;23.52;;;-1.60;99.90;;;;;;6113966;23;20013;-78
2022/12/11 07:57:02;;;;;;;81.75;25.83;;;-3.80;99.90;;;;;;6161857;23;20445;-76
2022/12/11 07:59:30;;;;;;;94.32;24.17;;;-3.60;99.90;;;;;;6163231;23;20017;-77
2022/12/11 08:02:00;;;;;;;88.20;22.13;;;-1.60;99.90;;;;;;6162816;23;20024;-77
2022/12/11 08:04:27;;;;;;;88.50;22.27;;;-4.00;99.90;;;;;;6136620;23;20048;-78
2022/12/11 08:06:56;;;;;;;107.60;25.85;;;-2.10;99.90;;;;;;6172479;23;20426;-75
2022/12/11 08:09:24;;;;;;;86.43;23.45;;;-1.80;99.90;;;;;;6162509;23;20028;-77
2022/12/11 08:11:51;;;;;;;77.78;23.02;;;-2.50;99.90;;;;;;6187329;23;20009;-75
2022/12/11 08:14:19;;;;;;;78.68;22.83;;;-1.90;99.90;;;;;;6138322;23;20017;-77
2022/12/11 08:16:50;;;;;;;73.07;21.35;;;-1.60;99.90;;;;;;6136819;23;20024;-77
2022/12/11 08:19:19;;;;;;;80.95;22.52;;;-2.20;99.90;;;;;;6162494;23;20021;-77
2022/12/11 08:21:47;;;;;;;74.22;23.13;;;-2.20;99.90;;;;;;6188388;23;20020;-77
2022/12/11 08:24:19;;;;;;;70.50;22.52;;;-2.70;99.90;;;;;;6185247;23;20020;-76
2022/12/11 08:26:47;;;;;;;84.78;23.15;;;-4.30;99.90;;;;;;6198439;23;20017;-78
2022/12/11 08:29:19;;;;;;;103.20;23.10;;;-3.30;99.90;;;;;;6187173;23;20430;-77
2022/12/11 08:31:47;;;;;;;85.50;22.20;;;-4.90;99.90;;;;;;6171400;23;20013;-77
2022/12/11 08:34:14;;;;;;;91.70;22.30;;;-1.20;99.90;;;;;;6138257;23;20014;-78
2022/12/11 08:36:46;;;;;;;87.65;23.15;;;-3.10;99.90;;;;;;6197195;23;20009;-77
2022/12/11 08:39:13;;;;;;;87.72;23.30;;;-3.40;99.90;;;;;;6162418;23;20024;-78
2022/12/11 08:41:41;;;;;;;81.45;22.60;;;-1.40;99.90;;;;;;6137806;23;20453;-78
2022/12/11 08:44:11;;;;;;;110.82;22.90;;;-3.30;99.90;;;;;;6136713;23;20031;-77
2022/12/11 08:46:47;;;;;;;85.10;21.20;;;-2.20;99.90;;;;;;6172174;23;20016;-79
2022/12/11 08:49:15;;;;;;;89.03;19.98;;;-1.40;99.90;;;;;;6138332;23;20028;-74
2022/12/11 08:51:42;;;;;;;65.45;19.75;;;-1.10;99.90;;;;;;6161266;23;20315;-78
2022/12/11 08:54:10;;;;;;;91.95;21.77;;;-4.40;99.90;;;;;;6113597;23;20013;-77
2022/12/11 08:56:38;;;;;;;107.90;19.33;;;-2.80;99.90;;;;;;6135598;23;20017;-77
2022/12/11 08:59:07;;;;;;;77.93;18.55;;;-0.70;99.90;;;;;;6162750;23;20309;-76
2022/12/11 09:01:38;;;;;;;71.55;18.67;;;-1.40;99.90;;;;;;6164299;23;20434;-75
2022/12/11 09:04:06;;;;;;;150.77;19.40;;;-1.60;99.90;;;;;;6136297;23;20036;-75
2022/12/11 09:06:34;;;;;;;77.22;18.25;;;-2.40;99.90;;;;;;6198237;23;20020;-76
2022/12/11 09:09:04;;;;;;;55.20;17.83;;;-0.50;99.90;;;;;;6137686;23;20013;-76
2022/12/11 09:11:34;;;;;;;75.57;17.33;;;-2.90;99.90;;;;;;6160786;23;20017;-75
2022/12/11 09:14:03;;;;;;;74.88;17.70;;;-2.90;99.90;;;;;;6186936;23;20013;-76
2022/12/11 09:16:38;;;;;;;114.15;20.63;;;-1.50;99.90;;;;;;6196632;23;20017;-75
2022/12/11 09:19:09;;;;;;;66.40;18.52;;;-2.80;99.90;;;;;;6171929;23;20021;-74
2022/12/11 09:21:37;;;;;;;62.58;17.42;;;-2.80;99.90;;;;;;6184376;23;20020;-76
2022/12/11 09:24:05;;;;;;;69.20;18.52;;;-2.00;99.90;;;;;;6135892;23;20021;-77
2022/12/11 09:26:32;;;;;;;;;;;-2.70;99.90;;;;;;6161752;23;20021;-76
2022/12/11 09:29:03;;;;;;;63.13;17.40;;;-2.60;99.90;;;;;;6137353;23;19916;-77
2022/12/11 09:31:35;;;;;;;68.43;18.38;;;-0.30;99.90;;;;;;6160462;23;20021;-78
2022/12/11 09:34:10;;;;;;;95.40;19.52;;;-0.60;99.90;;;;;;6136824;23;20016;-78
2022/12/11 09:36:39;;;;;;;78.68;19.00;;;-0.40;99.90;;;;;;6196315;23;20009;-75
2022/12/11 09:39:11;;;;;;;77.78;18.60;;;-2.30;99.90;;;;;;6147984;23;20024;-74
2022/12/11 09:41:54;;;;;;;77.40;22.63;;;-0.90;99.90;;;;;;6185972;23;20449;-76
2022/12/11 09:44:40;;;;;;;60.70;20.50;;;-2.30;99.90;;;;;;6170021;23;20453;-79
2022/12/11 09:47:34;;;;;;;90.65;18.85;;;-2.70;99.90;;;;;;6196288;23;20025;-74
2022/12/11 09:50:24;;;;;;;67.35;18.40;;;-2.30;99.90;;;;;;6148260;23;20013;-77
2022/12/11 09:52:51;;;;;;;97.75;19.42;;;-2.20;99.90;;;;;;6161823;23;20017;-79
2022/12/11 09:55:45;;;;;;;85.60;19.42;;;-2.20;99.90;;;;;;6187124;23;20013;-84
2022/12/11 09:58:23;;;;;;;89.57;20.15;;;-0.40;99.90;;;;;;6135613;23;20013;-78
2022/12/11 10:01:16;;;;;;;70.35;19.40;;;-0.40;99.90;;;;;;6192462;23;20024;-78
2022/12/11 10:03:57;;;;;;;61.83;18.50;;;-2.30;99.90;;;;;;6162546;23;20028;-77
2022/12/11 10:06:37;;;;;;;60.35;17.85;;;-1.80;99.90;;;;;;6172510;23;20016;-79
2022/12/11 10:09:32;;;;;;;61.60;20.67;;;0.00;99.90;;;;;;6171767;23;20013;-78
2022/12/11 10:12:16;;;;;;;85.13;18.95;;;-1.80;99.90;;;;;;6161613;23;20239;-78
2022/12/11 10:14:55;;;;;;;71.30;20.40;;;-1.70;99.90;;;;;;6197520;23;20021;-78
2022/12/11 10:17:40;;;;;;;107.45;27.92;;;0.10;99.90;;;;;;6196286;23;20013;-77
2022/12/11 10:20:19;;;;;;;168.65;40.45;;;-2.40;99.90;;;;;;6197315;23;20391;-78
2022/12/11 10:22:54;;;;;;;292.98;53.40;;;0.50;99.90;;;;;;6172926;23;20017;-78
2022/12/11 10:25:39;;;;;;;415.52;75.53;;;-0.30;99.90;;;;;;6185948;23;20445;-79
2022/12/11 10:28:14;;;;;;;562.60;103.00;;;-1.60;99.90;;;;;;6187560;23;20013;-79
2022/12/11 10:31:10;;;;;;;667.10;101.82;;;1.20;99.90;;;;;;6184935;23;20020;-77
2022/12/11 10:33:52;;;;;;;;;;;-1.60;99.90;;;;;;6164091;23;20017;-78
2022/12/11 10:36:26;;;;;;;391.13;80.38;;;-1.50;99.90;;;;;;6137717;23;19927;-80
2022/12/11 10:38:54;;;;;;;363.10;88.18;;;-1.80;99.90;;;;;;6198342;23;20013;-76
2022/12/11 10:41:30;;;;;;;422.17;91.10;;;-0.10;99.90;;;;;;6163463;23;20020;-80
2022/12/11 10:44:00;;;;;;;510.48;96.10;;;-0.10;99.90;;;;;;6197228;23;20017;-78
2022/12/11 10:46:31;;;;;;;359.58;85.80;;;-3.10;99.90;;;;;;6173413;23;20016;-78
2022/12/11 10:49:21;;;;;;;334.50;87.57;;;-0.80;99.90;;;;;;6198294;23;20507;-78
2022/12/11 10:51:50;;;;;;;362.63;90.38;;;0.10;99.90;;;;;;6197878;23;20246;-77
2022/12/11 10:54:37;;;;;;;314.90;68.85;;;0.50;99.90;;;;;;6174609;23;20423;-78
2022/12/11 10:57:10;;;;;;;274.95;67.50;;;-2.20;99.90;;;;;;6137579;23;20322;-78
2022/12/11 10:59:49;;;;;;;255.43;65.05;;;0.70;99.90;;;;;;6173561;23;20033;-75
2022/12/11 11:02:27;;;;;;;512.47;65.18;;;0.50;99.90;;;;;;6174310;23;20017;-76
2022/12/11 11:05:10;;;;;;;291.13;62.45;;;-1.30;99.90;;;;;;6161801;23;20423;-78
2022/12/11 11:07:42;;;;;;;229.90;62.67;;;-1.30;99.90;;;;;;6137767;23;20031;-77
2022/12/11 11:10:17;;;;;;;233.35;58.33;;;0.50;99.90;;;;;;6196683;23;20013;-77
2022/12/11 11:12:48;;;;;;;272.77;62.70;;;-1.30;99.90;;;;;;6174444;23;20016;-80
2022/12/11 11:15:28;;;;;;;300.85;59.13;;;0.00;99.90;;;;;;6173510;23;20013;-79
2022/12/11 11:18:06;;;;;;;192.93;58.45;;;-0.80;99.90;;;;;;6161641;23;20021;-77
2022/12/11 11:20:34;;;;;;;185.00;58.00;;;0.40;99.90;;;;;;6138664;23;20322;-76
2022/12/11 11:23:10;;;;;;;307.20;62.70;;;0.00;99.90;;;;;;6161882;23;20235;-77
2022/12/11 11:25:51;;;;;;;228.73;61.10;;;1.00;99.90;;;;;;6162940;23;20024;-80
2022/12/11 11:28:42;;;;;;;354.38;98.97;;;-3.10;99.90;;;;;;6139044;23;20025;-81
2022/12/11 11:31:13;;;;;;;309.35;105.15;;;0.40;99.90;;;;;;6197473;23;20020;-79
2022/12/11 11:34:02;;;;;;;325.65;106.07;;;0.10;99.90;;;;;;6199370;23;20013;-78
2022/12/11 11:36:37;;;;;;;361.90;108.07;;;-0.90;99.90;;;;;;6172098;23;20020;-78
2022/12/11 11:39:36;;;;;;;265.85;95.05;;;0.80;99.90;;;;;;6173292;23;20013;-81
2022/12/11 11:42:22;;;;;;;257.70;77.50;;;-0.70;99.90;;;;;;6175377;23;20013;-76
2022/12/11 11:45:30;;;;;;;158.20;52.47;;;0.00;99.90;;;;;;6137284;23;20012;-76
2022/12/11 11:48:17;;;;;;;153.80;52.50;;;-0.90;99.90;;;;;;6174358;23;20028;-75
2022/12/11 11:50:49;;;;;;;150.05;51.50;;;1.40;99.90;;;;;;6196490;23;20013;-77
2022/12/11 11:53:29;;;;;;;156.32;58.20;;;-0.90;99.90;;;;;;6198841;23;20016;-79
2022/12/11 11:56:16;;;;;;;142.18;37.20;;;-1.30;99.90;;;;;;6189518;23;20013;-78
2022/12/11 11:58:48;;;;;;;92.53;32.15;;;-0.80;99.90;;;;;;6198762;23;20310;-76
2022/12/11 12:01:36;;;;;;;94.47;26.92;;;0.70;99.90;;;;;;6166954;23;20020;-82
2022/12/11 12:04:04;;;;;;;91.95;24.75;;;1.00;99.90;;;;;;6197338;23;20013;-79
2022/12/11 12:10:52;;;;;;;57.13;19.90;;;-0.70;99.90;;;;;;6154773;23;20024;-80
2022/12/11 12:13:42;;;;;;;84.65;20.23;;;-0.40;99.90;;;;;;6173321;23;20024;-79
2022/12/11 12:16:31;;;;;;;54.13;19.42;;;-2.70;99.90;;;;;;6161434;23;20017;-76
2022/12/11 12:19:38;;;;;;;61.33;19.92;;;2.50;99.90;;;;;;6167614;23;20330;-78
2022/12/11 12:22:51;;;;;;;86.40;19.80;;;-0.40;99.90;;;;;;6162898;23;20383;-76
2022/12/11 12:25:49;;;;;;;77.90;19.17;;;-0.40;99.90;;;;;;6198326;23;20009;-77
2022/12/11 12:28:24;;;;;;;52.55;18.45;;;-0.10;99.90;;;;;;6149260;23;20322;-79
2022/12/11 12:30:59;;;;;;;57.67;18.13;;;-0.30;99.90;;;;;;6171478;23;20024;-79
2022/12/11 12:33:30;;;;;;;52.85;17.77;;;2.20;99.90;;;;;;6198137;23;20323;-76
2022/12/11 12:37:01;;;;;;;;;;;;;;;;;;;;;
2022/12/11 12:40:03;;;;;;;;;;;;;;;;;;;;;
2022/12/11 12:43:02;;;;;;;53.17;16.15;;;-2.00;99.90;;;;;;6198401;23;20012;-82
2022/12/11 12:46:09;;;;;;;47.65;16.55;;;1.00;99.90;;;;;;6172906;23;20024;-82
2022/12/11 12:48:36;;;;;;;54.50;17.33;;;-0.20;99.90;;;;;;6163309;23;20419;-78
2022/12/11 12:51:05;;;;;;;60.80;16.67;;;-0.30;99.90;;;;;;6112300;23;20013;-77
2022/12/11 12:53:35;;;;;;;60.88;16.58;;;-0.20;99.90;;;;;;6162284;23;20010;-76
2022/12/11 12:56:05;;;;;;;64.18;18.85;;;-0.30;99.90;;;;;;6196764;23;20009;-78
2022/12/11 12:58:42;;;;;;;80.10;16.30;;;-0.10;99.90;;;;;;6160720;23;20009;-78
2022/12/11 13:01:34;;;;;;;82.93;18.23;;;-0.20;99.90;;;;;;6137980;23;20326;-81
2022/12/11 13:04:32;;;;;;;73.65;17.27;;;0.70;99.90;;;;;;6161270;23;20425;-78
2022/12/11 13:07:29;;;;;;;85.95;19.00;;;-0.10;99.90;;;;;;6138864;23;20438;-75
2022/12/11 13:10:26;;;;;;;67.80;18.85;;;2.50;99.90;;;;;;6171521;23;20024;-81
2022/12/11 13:12:57;;;;;;;73.15;22.00;;;1.20;99.90;;;;;;6198049;23;20406;-77
2022/12/11 13:15:33;;;;;;;95.85;26.45;;;0.10;99.90;;;;;;6137391;23;20021;-80
2022/12/11 13:18:07;;;;;;;82.43;28.00;;;-0.20;99.90;;;;;;6160803;23;20013;-79
2022/12/11 13:20:47;;;;;;;93.15;29.90;;;-0.20;99.90;;;;;;6197224;23;20438;-81
2022/12/11 13:23:27;;;;;;;86.72;29.30;;;1.80;99.90;;;;;;6171303;23;20433;-75
2022/12/11 13:26:01;;;;;;;96.20;29.02;;;0.10;99.90;;;;;;6172661;23;20024;-81